Cornholme, United Kingdom
Current Conditions -  °F | °C
As of 6:20 PM on Monday 22 Dec 2014 (Local Time) from EGNM Reporting Station
Light Rain Light Rain  
Wind Chill: 50°   Ceiling: 900
Heat Index: 50°   Visibility: 3mi
Dew Point: 48°   Wind: 25mph
Humidity: 94%   Direction: 250°WSW
Pressure: 29.71"   Gusts: 37mph
Location:  53.73°N, 2.14°W
Report Text: EGNM 221820Z 25022G32KT 5000 -RA SCT005 BKN009 10/09 Q1006
Loading
Personal Weather Stations






























Interactive Weather Map New forecast layout! Learn more

10-Day Weather Forecast

Advertisements
Track Severe Weather on mobile